Time;durP1;ratioP1;P1;durP2;ratioP2;P2;SDS_P1;SDS_P2;PMS_P1;PMS_P2;Temp;Humidity;BMP_temperature;BMP_pressure;BME280_temperature;BME280_humidity;BME280_pressure;Samples;Min_cycle;Max_cycle;Signal;HPM_P1;HPM_P2
2023/11/27 00:00:59;;;;;;;40.78;27.27;;;5.50;99.90;;;;;;5101365;27;20032;-77
2023/11/27 00:03:25;;;;;;;47.22;30.85;;;5.50;99.90;;;;;;5099395;27;20469;-74
2023/11/27 00:05:51;;;;;;;45.58;28.30;;;5.50;99.90;;;;;;5081035;27;20038;-77
2023/11/27 00:08:17;;;;;;;47.25;29.42;;;5.50;99.90;;;;;;5102520;27;20387;-77
2023/11/27 00:10:44;;;;;;;42.42;26.63;;;5.50;99.90;;;;;;5098882;27;20426;-77
2023/11/27 00:13:10;;;;;;;38.13;24.55;;;5.50;99.90;;;;;;5087272;28;20050;-77
2023/11/27 00:15:37;;;;;;;47.13;29.20;;;5.50;99.90;;;;;;5115875;27;20043;-74
2023/11/27 00:18:03;;;;;;;49.95;31.27;;;5.50;99.90;;;;;;5082467;27;20038;-77
2023/11/27 00:20:30;;;;;;;51.05;32.22;;;5.50;99.90;;;;;;5092813;27;20031;-78
2023/11/27 00:22:56;;;;;;;56.58;34.55;;;5.50;99.90;;;;;;5065666;27;20039;-77
2023/11/27 00:25:22;;;;;;;63.97;37.25;;;5.50;99.90;;;;;;5082432;28;20482;-76
2023/11/27 00:27:48;;;;;;;47.13;32.60;;;5.50;99.90;;;;;;5083124;28;20058;-75
2023/11/27 00:30:16;;;;;;;42.83;30.05;;;5.50;99.90;;;;;;5082163;27;20035;-76
2023/11/27 00:32:42;;;;;;;52.95;33.78;;;5.50;99.90;;;;;;5078758;28;20491;-77
2023/11/27 00:35:08;;;;;;;48.63;32.25;;;5.50;99.90;;;;;;5093434;27;20413;-76
2023/11/27 00:37:35;;;;;;;41.85;29.85;;;5.50;99.90;;;;;;5065974;28;20067;-77
2023/11/27 00:40:01;;;;;;;41.28;29.23;;;5.50;99.90;;;;;;5080776;28;20023;-76
2023/11/27 00:42:27;;;;;;;41.35;27.77;;;5.40;99.90;;;;;;5079371;28;20409;-78
2023/11/27 00:44:55;;;;;;;44.42;32.47;;;5.40;99.90;;;;;;5051767;27;20139;-77
2023/11/27 00:47:21;;;;;;;38.10;27.27;;;5.50;99.90;;;;;;5079390;28;20038;-73
2023/11/27 00:49:47;;;;;;;39.25;27.20;;;5.50;99.90;;;;;;5079943;28;20038;-75
2023/11/27 00:52:15;;;;;;;43.65;28.40;;;5.40;99.90;;;;;;5091910;28;20528;-76
2023/11/27 00:54:41;;;;;;;52.78;34.00;;;5.40;99.90;;;;;;5082397;28;20066;-77
2023/11/27 00:57:08;;;;;;;44.55;29.55;;;5.40;99.90;;;;;;5108692;27;20031;-75
2023/11/27 00:59:40;;;;;;;42.47;29.05;;;5.40;99.90;;;;;;5078054;28;20438;-77
2023/11/27 01:02:06;;;;;;;46.60;31.10;;;5.50;99.90;;;;;;5061374;28;20036;-77
2023/11/27 01:04:33;;;;;;;40.53;28.77;;;5.50;99.90;;;;;;5094909;28;20039;-77
2023/11/27 01:07:00;;;;;;;38.58;26.27;;;5.50;99.90;;;;;;5114896;27;20450;-77
2023/11/27 01:09:27;;;;;;;44.35;28.85;;;5.50;99.90;;;;;;5114452;27;20031;-77
2023/11/27 01:11:54;;;;;;;42.95;31.52;;;5.50;99.90;;;;;;5081672;28;20039;-78
2023/11/27 01:14:21;;;;;;;44.58;29.60;;;5.50;99.90;;;;;;5060628;28;20035;-78
2023/11/27 01:16:47;;;;;;;49.97;32.35;;;5.50;99.90;;;;;;5083518;28;20546;-75
2023/11/27 01:19:13;;;;;;;38.03;27.38;;;5.50;99.90;;;;;;5065025;28;20599;-74
2023/11/27 01:21:40;;;;;;;47.42;31.70;;;5.50;99.90;;;;;;5070145;28;20411;-77
2023/11/27 01:24:08;;;;;;;43.13;27.45;;;5.50;99.90;;;;;;5102095;28;20035;-77
2023/11/27 01:26:34;;;;;;;48.42;33.92;;;5.50;99.90;;;;;;5069041;28;20066;-77
2023/11/27 01:29:00;;;;;;;48.85;30.27;;;5.50;99.90;;;;;;5081355;28;20031;-77
2023/11/27 01:31:27;;;;;;;45.55;31.25;;;5.50;99.90;;;;;;5062809;28;20040;-76
2023/11/27 01:33:53;;;;;;;51.42;30.48;;;5.40;99.90;;;;;;5082242;28;20449;-78
2023/11/27 01:36:19;;;;;;;43.53;28.00;;;5.40;99.90;;;;;;5050122;27;20450;-74
2023/11/27 01:38:45;;;;;;;44.42;28.42;;;5.40;99.90;;;;;;5072344;27;20044;-74
2023/11/27 01:41:12;;;;;;;41.15;27.85;;;5.40;99.90;;;;;;5050650;28;20046;-77
2023/11/27 01:43:38;;;;;;;42.35;27.15;;;5.40;99.90;;;;;;5085646;27;20043;-76
2023/11/27 01:46:26;;;;;;;43.88;28.27;;;5.40;99.90;;;;;;5084478;28;20044;-76
2023/11/27 01:48:53;;;;;;;38.75;23.35;;;5.40;99.90;;;;;;5072871;28;20410;-75
2023/11/27 01:51:21;;;;;;;38.70;23.30;;;5.40;99.90;;;;;;5085020;27;20047;-76
2023/11/27 01:53:53;;;;;;;37.63;25.02;;;5.40;99.90;;;;;;5094879;27;20044;-75
2023/11/27 01:56:21;;;;;;;36.08;22.92;;;5.40;99.90;;;;;;5056699;27;20036;-77
2023/11/27 01:58:53;;;;;;;33.35;23.13;;;5.40;99.90;;;;;;5087040;27;20035;-75
2023/11/27 02:01:20;;;;;;;37.58;23.38;;;5.40;99.90;;;;;;5089959;28;20035;-77
2023/11/27 02:03:46;;;;;;;37.40;23.85;;;5.40;99.90;;;;;;5100760;27;20563;-78
2023/11/27 02:06:12;;;;;;;33.63;20.70;;;5.40;99.90;;;;;;5055105;28;20027;-78
2023/11/27 02:08:40;;;;;;;38.15;21.50;;;5.30;99.90;;;;;;5070232;27;20042;-72
2023/11/27 02:11:07;;;;;;;38.97;24.27;;;5.30;99.90;;;;;;5085717;28;20027;-77
2023/11/27 02:13:33;;;;;;;45.17;25.58;;;5.40;99.90;;;;;;5051437;28;20402;-76
2023/11/27 02:16:00;;;;;;;32.63;20.50;;;5.30;99.90;;;;;;5089724;27;20027;-75
2023/11/27 02:18:26;;;;;;;30.63;20.65;;;5.30;99.90;;;;;;5086370;28;20042;-76
2023/11/27 02:20:53;;;;;;;37.63;23.13;;;5.30;99.90;;;;;;5102174;27;20027;-76
2023/11/27 02:23:19;;;;;;;30.33;20.90;;;5.20;99.90;;;;;;5084103;27;20390;-77
2023/11/27 02:25:47;;;;;;;34.55;20.63;;;5.30;99.90;;;;;;5073278;27;20062;-76
2023/11/27 02:28:13;;;;;;;38.30;22.13;;;5.20;99.90;;;;;;5084760;28;20470;-76
2023/11/27 02:30:39;;;;;;;37.22;24.17;;;5.20;99.90;;;;;;5063956;27;20043;-73
2023/11/27 02:33:06;;;;;;;27.20;19.13;;;5.20;99.90;;;;;;5099310;27;20053;-77
2023/11/27 02:35:32;;;;;;;32.15;20.60;;;5.20;99.90;;;;;;5051979;27;20031;-77
2023/11/27 02:38:00;;;;;;;33.85;22.23;;;5.20;99.90;;;;;;5072221;27;20532;-76
2023/11/27 02:40:27;;;;;;;42.67;24.33;;;5.20;99.90;;;;;;5065591;27;20043;-75
2023/11/27 02:42:53;;;;;;;35.45;21.52;;;5.20;99.90;;;;;;5081493;27;20031;-74
2023/11/27 02:45:20;;;;;;;35.47;20.40;;;5.20;99.90;;;;;;5069591;27;20032;-75
2023/11/27 02:47:46;;;;;;;35.97;23.73;;;5.20;99.90;;;;;;5067845;27;20449;-76
2023/11/27 02:50:13;;;;;;;33.55;21.00;;;5.20;99.90;;;;;;5066002;27;20485;-77
2023/11/27 02:52:40;;;;;;;39.47;22.70;;;5.20;99.90;;;;;;5068533;28;20433;-77
2023/11/27 02:55:07;;;;;;;36.35;20.30;;;5.20;99.90;;;;;;5083492;27;20042;-77
2023/11/27 02:57:33;;;;;;;40.88;23.40;;;5.20;99.90;;;;;;5053192;28;20040;-76
2023/11/27 03:00:00;;;;;;;44.03;22.70;;;5.20;99.90;;;;;;5084348;27;20045;-77
2023/11/27 03:02:27;;;;;;;40.30;24.05;;;5.10;99.90;;;;;;5081875;28;20824;-77
2023/11/27 03:04:53;;;;;;;41.55;25.52;;;5.20;99.90;;;;;;5068868;28;20035;-76
2023/11/27 03:07:19;;;;;;;33.10;22.42;;;5.10;99.90;;;;;;5117965;27;20043;-78
2023/11/27 03:09:48;;;;;;;35.70;21.88;;;5.10;99.90;;;;;;5068355;28;20032;-77
2023/11/27 03:12:14;;;;;;;38.85;23.23;;;5.10;99.90;;;;;;5083951;28;20042;-76
2023/11/27 03:14:41;;;;;;;34.60;22.58;;;5.10;99.90;;;;;;5085492;28;20051;-76
2023/11/27 03:17:07;;;;;;;35.17;20.98;;;5.10;99.90;;;;;;5085337;27;20039;-76
2023/11/27 03:19:38;;;;;;;37.53;22.13;;;5.10;99.90;;;;;;5074048;27;20414;-78
2023/11/27 03:22:04;;;;;;;40.42;23.88;;;5.10;99.90;;;;;;5050221;27;20036;-78
2023/11/27 03:24:30;;;;;;;38.95;24.35;;;5.10;99.90;;;;;;5085867;28;20887;-76
2023/11/27 03:26:56;;;;;;;45.67;27.00;;;5.10;99.90;;;;;;5053477;28;20726;-75
2023/11/27 03:29:23;;;;;;;35.58;23.70;;;5.10;99.90;;;;;;5102672;27;21049;-74
2023/11/27 03:31:50;;;;;;;43.58;24.98;;;5.10;99.90;;;;;;5064852;27;20052;-76
2023/11/27 03:34:16;;;;;;;43.30;27.25;;;5.10;99.90;;;;;;5050601;27;20032;-76
2023/11/27 03:36:42;;;;;;;43.33;26.15;;;5.00;99.90;;;;;;5054563;27;20050;-78
2023/11/27 03:39:11;;;;;;;41.88;24.95;;;5.00;99.90;;;;;;5052787;28;20059;-77
2023/11/27 03:41:37;;;;;;;40.72;25.70;;;5.00;99.90;;;;;;5062054;28;20513;-76
2023/11/27 03:44:03;;;;;;;39.33;25.05;;;5.00;99.90;;;;;;5075844;28;20039;-77
2023/11/27 03:46:30;;;;;;;42.45;26.98;;;5.00;99.90;;;;;;5077257;28;20023;-78
2023/11/27 03:48:56;;;;;;;38.28;24.77;;;5.00;99.90;;;;;;5069225;27;20055;-72
2023/11/27 03:51:23;;;;;;;43.88;27.33;;;5.00;99.90;;;;;;5097276;27;20031;-78
2023/11/27 03:53:50;;;;;;;39.75;25.55;;;5.00;99.90;;;;;;5080957;28;20051;-75
2023/11/27 03:56:20;;;;;;;42.38;27.40;;;5.00;99.90;;;;;;5076857;27;20024;-78
2023/11/27 03:58:47;;;;;;;35.97;22.95;;;5.00;99.90;;;;;;5096333;27;20027;-77
2023/11/27 04:01:16;;;;;;;36.83;24.02;;;5.00;99.90;;;;;;5075860;28;20028;-77
2023/11/27 04:03:42;;;;;;;40.85;27.08;;;5.00;99.90;;;;;;5077875;28;20470;-76
2023/11/27 04:06:09;;;;;;;34.42;22.88;;;5.00;99.90;;;;;;5062995;28;20038;-78
2023/11/27 04:08:39;;;;;;;28.38;20.58;;;5.00;99.90;;;;;;5096273;27;20040;-78
2023/11/27 04:11:13;;;;;;;42.00;26.48;;;5.00;99.90;;;;;;5092760;27;20032;-76
2023/11/27 04:13:41;;;;;;;35.60;23.25;;;5.00;99.90;;;;;;5097037;27;20055;-78
2023/11/27 04:16:11;;;;;;;37.17;25.35;;;5.00;99.90;;;;;;5063473;28;20035;-78
2023/11/27 04:18:37;;;;;;;36.90;23.90;;;5.00;99.90;;;;;;5081417;28;20046;-79
2023/11/27 04:21:04;;;;;;;33.80;22.60;;;5.00;99.90;;;;;;5078725;28;20046;-78
2023/11/27 04:23:30;;;;;;;32.03;21.25;;;5.00;99.90;;;;;;5080767;28;20034;-79
2023/11/27 04:25:56;;;;;;;34.28;22.17;;;5.00;99.90;;;;;;5081551;27;20044;-76
2023/11/27 04:28:23;;;;;;;39.30;21.33;;;5.00;99.90;;;;;;5067088;28;20032;-75
2023/11/27 04:30:49;;;;;;;27.10;19.25;;;5.00;99.90;;;;;;5092624;28;20043;-74
2023/11/27 04:33:15;;;;;;;29.15;19.23;;;5.00;99.90;;;;;;5076322;28;20046;-77
2023/11/27 04:35:42;;;;;;;28.08;18.60;;;5.00;99.90;;;;;;5096560;27;20055;-77
2023/11/27 04:38:09;;;;;;;34.00;20.95;;;5.00;99.90;;;;;;5060888;28;20035;-77
2023/11/27 04:40:35;;;;;;;29.73;20.30;;;5.00;99.90;;;;;;5094768;28;20047;-76
2023/11/27 04:43:01;;;;;;;29.52;19.83;;;5.00;99.90;;;;;;5078837;28;20020;-77
2023/11/27 04:45:27;;;;;;;29.20;19.02;;;5.00;99.90;;;;;;5099311;27;20493;-75
2023/11/27 04:47:54;;;;;;;22.23;14.10;;;5.00;99.90;;;;;;5062624;28;20039;-77
2023/11/27 04:50:21;;;;;;;22.52;17.77;;;5.00;99.90;;;;;;5049792;28;20039;-75
2023/11/27 04:52:47;;;;;;;30.55;19.40;;;5.00;99.90;;;;;;5074712;28;20027;-76
2023/11/27 04:55:14;;;;;;;28.60;20.38;;;5.00;99.90;;;;;;5098514;28;20044;-76
2023/11/27 04:57:40;;;;;;;25.50;17.27;;;5.00;99.90;;;;;;5075825;28;20086;-79
2023/11/27 05:00:08;;;;;;;24.40;16.25;;;5.00;99.90;;;;;;5078976;28;20044;-78
2023/11/27 05:02:34;;;;;;;25.90;17.73;;;5.00;99.90;;;;;;5065268;28;20028;-77
2023/11/27 05:05:00;;;;;;;21.83;16.00;;;5.00;99.90;;;;;;5078497;28;20040;-76
2023/11/27 05:07:28;;;;;;;19.35;15.18;;;5.00;99.90;;;;;;5079077;28;20694;-77
2023/11/27 05:09:54;;;;;;;22.40;14.85;;;5.00;99.90;;;;;;5077800;28;20047;-75
2023/11/27 05:12:21;;;;;;;19.05;14.27;;;5.00;99.90;;;;;;5108388;27;20031;-79
2023/11/27 05:14:47;;;;;;;23.90;16.67;;;5.00;99.90;;;;;;5100656;27;20036;-79
2023/11/27 05:17:13;;;;;;;20.25;15.57;;;5.00;99.90;;;;;;5090141;27;20053;-77
2023/11/27 05:19:40;;;;;;;25.80;18.52;;;5.00;99.90;;;;;;5083830;28;20039;-78
2023/11/27 05:22:06;;;;;;;24.27;16.98;;;5.00;99.90;;;;;;5064721;27;20039;-78
2023/11/27 05:24:33;;;;;;;20.65;14.18;;;5.00;99.90;;;;;;5083436;27;20032;-74
2023/11/27 05:26:59;;;;;;;20.50;15.48;;;4.90;99.90;;;;;;5084253;27;20040;-75
2023/11/27 05:29:25;;;;;;;18.50;14.35;;;4.90;99.90;;;;;;5081022;28;20035;-79
2023/11/27 05:31:52;;;;;;;16.50;12.63;;;4.90;99.90;;;;;;5087991;27;20030;-76
2023/11/27 05:34:18;;;;;;;16.88;12.40;;;4.90;99.90;;;;;;5102136;27;20401;-77
2023/11/27 05:36:44;;;;;;;19.90;12.43;;;5.00;99.90;;;;;;5102202;27;20508;-77
2023/11/27 05:39:11;;;;;;;16.90;12.38;;;5.00;99.90;;;;;;5098883;27;20028;-78
2023/11/27 05:41:37;;;;;;;16.75;12.60;;;5.00;99.90;;;;;;5083415;28;20039;-73
2023/11/27 05:44:04;;;;;;;16.02;12.38;;;5.00;99.90;;;;;;5074115;28;20036;-78
2023/11/27 05:46:30;;;;;;;18.00;13.43;;;5.00;99.90;;;;;;5092783;28;20031;-75
2023/11/27 05:48:58;;;;;;;17.73;14.23;;;5.00;99.90;;;;;;5086200;27;20047;-78
2023/11/27 05:51:26;;;;;;;17.60;12.68;;;5.00;99.90;;;;;;5087326;27;20483;-76
2023/11/27 05:53:55;;;;;;;18.88;14.20;;;5.00;99.90;;;;;;5084782;27;20411;-78
2023/11/27 05:56:23;;;;;;;19.10;14.32;;;4.90;99.90;;;;;;5100679;27;20036;-77
2023/11/27 05:58:49;;;;;;;16.00;12.85;;;4.90;99.90;;;;;;5086950;28;20459;-77
2023/11/27 06:01:16;;;;;;;16.73;11.68;;;4.90;99.90;;;;;;5053615;27;20027;-76
2023/11/27 06:03:42;;;;;;;16.40;12.57;;;4.90;99.90;;;;;;5055897;28;20034;-73
2023/11/27 06:06:10;;;;;;;19.00;12.73;;;4.90;99.90;;;;;;5087824;28;20514;-77
2023/11/27 06:08:36;;;;;;;17.42;11.43;;;4.90;99.90;;;;;;5072871;27;20509;-74
2023/11/27 06:11:04;;;;;;;16.63;12.55;;;4.90;99.90;;;;;;5086346;27;20439;-79
2023/11/27 06:13:31;;;;;;;13.32;10.98;;;4.90;99.90;;;;;;5122347;27;20043;-80
2023/11/27 06:15:58;;;;;;;16.63;11.38;;;4.90;99.90;;;;;;5074358;27;20039;-76
2023/11/27 06:18:24;;;;;;;20.20;13.77;;;4.90;99.90;;;;;;5066165;27;20043;-76
2023/11/27 06:20:50;;;;;;;14.63;12.05;;;4.90;99.90;;;;;;5070317;27;20044;-73
2023/11/27 06:23:17;;;;;;;21.55;14.88;;;4.90;99.90;;;;;;5083042;28;20514;-74
2023/11/27 06:25:43;;;;;;;18.77;12.70;;;4.80;99.90;;;;;;5087509;27;20027;-77
2023/11/27 06:28:13;;;;;;;15.13;11.80;;;4.80;99.90;;;;;;5104656;27;20027;-78
2023/11/27 06:30:40;;;;;;;17.48;10.75;;;4.80;99.90;;;;;;5083291;27;20050;-79
2023/11/27 06:33:06;;;;;;;13.50;10.57;;;4.90;99.90;;;;;;5117784;27;20467;-78
2023/11/27 06:35:32;;;;;;;13.75;10.50;;;4.80;99.90;;;;;;5087084;27;20042;-78
2023/11/27 06:37:59;;;;;;;19.10;12.63;;;4.90;99.90;;;;;;5070135;27;20402;-76
2023/11/27 06:40:25;;;;;;;19.65;13.95;;;4.90;99.90;;;;;;5082759;27;20020;-76
2023/11/27 06:42:52;;;;;;;16.50;12.10;;;4.90;99.90;;;;;;5085854;28;20039;-76
2023/11/27 06:45:19;;;;;;;14.20;10.50;;;4.80;99.90;;;;;;5100282;27;20406;-76
2023/11/27 06:47:45;;;;;;;14.88;11.02;;;4.80;99.90;;;;;;5087915;27;20026;-77
2023/11/27 06:50:12;;;;;;;16.33;11.25;;;4.80;99.90;;;;;;5086728;27;20024;-76
2023/11/27 06:52:38;;;;;;;17.70;11.40;;;4.80;99.90;;;;;;5089056;27;20506;-76
2023/11/27 06:55:05;;;;;;;13.25;10.63;;;4.80;99.90;;;;;;5082719;27;20065;-77
2023/11/27 06:57:31;;;;;;;15.23;10.68;;;4.80;99.90;;;;;;5119425;27;20032;-74
2023/11/27 06:59:58;;;;;;;15.20;10.70;;;4.80;99.90;;;;;;5067489;27;20051;-75
2023/11/27 07:02:26;;;;;;;15.65;13.10;;;4.80;99.90;;;;;;5081642;27;20027;-76
2023/11/27 07:04:52;;;;;;;14.90;10.98;;;4.80;99.90;;;;;;5089682;27;20042;-76
2023/11/27 07:07:18;;;;;;;17.63;13.60;;;4.70;99.90;;;;;;5102435;27;20031;-76
2023/11/27 07:09:45;;;;;;;16.70;11.82;;;4.80;99.90;;;;;;5085112;27;20032;-76
2023/11/27 07:12:14;;;;;;;14.38;10.50;;;4.70;99.90;;;;;;5102153;27;20350;-75
2023/11/27 07:14:40;;;;;;;13.63;10.00;;;4.70;99.90;;;;;;5098732;27;20299;-76
2023/11/27 07:17:07;;;;;;;12.38;10.25;;;4.70;99.90;;;;;;5102285;27;20395;-72
2023/11/27 07:19:33;;;;;;;13.10;8.90;;;4.70;99.90;;;;;;5067692;28;20039;-77
2023/11/27 07:22:01;;;;;;;13.68;9.88;;;4.70;99.90;;;;;;5096892;27;20108;-77
2023/11/27 07:24:28;;;;;;;10.45;8.07;;;4.70;99.90;;;;;;5116536;27;20057;-73
2023/11/27 07:26:54;;;;;;;12.07;9.82;;;4.70;99.90;;;;;;5080977;27;20398;-77
2023/11/27 07:29:21;;;;;;;15.82;10.70;;;4.70;99.90;;;;;;5067545;28;20074;-74
2023/11/27 07:31:47;;;;;;;15.93;11.38;;;4.60;99.90;;;;;;5078503;27;20445;-77
2023/11/27 07:34:14;;;;;;;13.45;11.20;;;4.60;99.90;;;;;;5067392;27;20040;-78
2023/11/27 07:36:40;;;;;;;13.25;10.50;;;4.60;99.90;;;;;;5063839;27;20032;-78
2023/11/27 07:39:12;;;;;;;13.50;11.40;;;4.60;99.90;;;;;;5086213;27;20482;-78
2023/11/27 07:41:39;;;;;;;17.85;11.82;;;4.60;99.90;;;;;;5080848;28;20533;-78
2023/11/27 07:44:15;;;;;;;15.68;10.95;;;4.60;99.90;;;;;;5086453;27;20038;-77
2023/11/27 07:46:41;;;;;;;17.70;11.85;;;4.60;99.90;;;;;;5085215;27;20027;-77
2023/11/27 07:49:08;;;;;;;17.42;11.38;;;4.60;99.90;;;;;;5083799;27;20046;-72
2023/11/27 07:51:35;;;;;;;14.38;11.43;;;4.60;99.90;;;;;;5101140;27;20038;-78
2023/11/27 07:54:01;;;;;;;14.30;11.23;;;4.60;99.90;;;;;;5085008;28;20043;-76
2023/11/27 07:56:29;;;;;;;15.75;12.18;;;4.60;99.90;;;;;;5068099;27;20347;-76
2023/11/27 07:58:56;;;;;;;15.18;11.70;;;4.50;99.90;;;;;;5083949;27;20036;-74
2023/11/27 08:01:23;;;;;;;14.07;10.32;;;4.50;99.90;;;;;;5085978;27;20027;-75
2023/11/27 08:03:49;;;;;;;12.82;9.25;;;4.50;99.90;;;;;;5093950;27;20039;-76
2023/11/27 08:06:16;;;;;;;10.40;9.32;;;4.50;99.90;;;;;;5066049;28;20410;-75
2023/11/27 08:08:42;;;;;;;16.02;12.15;;;4.50;99.90;;;;;;5101012;27;20038;-77
2023/11/27 08:11:09;;;;;;;13.18;10.20;;;4.50;99.90;;;;;;5082446;28;20036;-74
2023/11/27 08:13:36;;;;;;;12.25;10.23;;;4.50;99.90;;;;;;5080467;27;20047;-75
2023/11/27 08:16:04;;;;;;;11.55;9.02;;;4.50;99.90;;;;;;5066364;27;20031;-76
2023/11/27 08:18:30;;;;;;;14.73;10.13;;;4.50;99.90;;;;;;5052429;27;20578;-76
2023/11/27 08:20:57;;;;;;;13.40;10.13;;;4.60;99.90;;;;;;5081102;27;20364;-75
2023/11/27 08:23:24;;;;;;;14.20;10.55;;;4.60;99.90;;;;;;5066089;27;20040;-76
2023/11/27 08:25:50;;;;;;;12.73;10.55;;;4.50;99.90;;;;;;5060512;28;20032;-76
2023/11/27 08:28:16;;;;;;;13.52;10.57;;;4.60;99.90;;;;;;5078722;28;20058;-77
2023/11/27 08:30:45;;;;;;;13.07;10.65;;;4.60;99.90;;;;;;5074818;28;20040;-77
2023/11/27 08:33:11;;;;;;;14.77;9.85;;;4.60;99.90;;;;;;5105478;27;20036;-77
2023/11/27 08:35:37;;;;;;;12.10;9.93;;;4.50;99.90;;;;;;5092822;27;20556;-76
2023/11/27 08:38:04;;;;;;;16.42;11.00;;;4.60;99.90;;;;;;5111951;27;20035;-76
2023/11/27 08:40:30;;;;;;;13.90;10.40;;;4.50;99.90;;;;;;5070457;28;20046;-72
2023/11/27 08:42:57;;;;;;;14.40;11.02;;;4.50;99.90;;;;;;5055619;27;20038;-76
2023/11/27 08:45:24;;;;;;;15.35;12.50;;;4.50;99.90;;;;;;5069438;27;20050;-75
2023/11/27 08:47:50;;;;;;;18.65;12.55;;;4.50;99.90;;;;;;5089003;28;20393;-76
2023/11/27 08:50:24;;;;;;;18.05;11.73;;;4.50;99.90;;;;;;5052818;28;20031;-75
2023/11/27 08:52:50;;;;;;;13.85;11.52;;;4.50;99.90;;;;;;5097027;27;20039;-75
2023/11/27 08:55:23;;;;;;;13.57;11.20;;;4.50;99.90;;;;;;5080619;28;20039;-76
2023/11/27 08:57:50;;;;;;;17.45;13.15;;;4.60;99.90;;;;;;5080465;27;20042;-74
2023/11/27 09:00:19;;;;;;;16.10;12.80;;;4.50;99.90;;;;;;5116508;27;20050;-75
2023/11/27 09:02:48;;;;;;;14.95;13.05;;;4.50;99.90;;;;;;5082214;28;20473;-78
2023/11/27 09:05:14;;;;;;;14.50;10.43;;;4.60;99.90;;;;;;5063641;28;20035;-77
2023/11/27 09:07:41;;;;;;;17.48;12.30;;;4.60;99.90;;;;;;5081566;28;20569;-77
2023/11/27 09:10:07;;;;;;;17.40;12.25;;;4.60;99.90;;;;;;5068495;28;20031;-77
2023/11/27 09:12:34;;;;;;;14.90;11.35;;;4.60;99.90;;;;;;5066426;28;20032;-73
2023/11/27 09:15:01;;;;;;;16.15;12.32;;;4.60;99.90;;;;;;5081203;28;20043;-76
2023/11/27 09:17:28;;;;;;;17.38;12.30;;;4.60;99.90;;;;;;5082401;28;20036;-75
2023/11/27 09:19:56;;;;;;;15.13;11.93;;;4.60;99.90;;;;;;5080897;28;20035;-76
2023/11/27 09:22:23;;;;;;;16.65;12.88;;;4.60;99.90;;;;;;5082409;28;20023;-76
2023/11/27 09:24:49;;;;;;;13.27;10.80;;;4.60;99.90;;;;;;5065118;28;20036;-77
2023/11/27 09:27:15;;;;;;;18.45;13.25;;;4.60;99.90;;;;;;5103280;28;20028;-77
2023/11/27 09:29:42;;;;;;;13.23;11.68;;;4.70;99.90;;;;;;5066068;28;20459;-77
2023/11/27 09:32:08;;;;;;;14.45;11.27;;;4.70;99.90;;;;;;5066583;28;20553;-76
2023/11/27 09:34:34;;;;;;;17.25;13.02;;;4.70;99.90;;;;;;5086013;28;20486;-77
2023/11/27 09:37:01;;;;;;;16.33;11.55;;;4.70;99.90;;;;;;5098688;28;20046;-74
2023/11/27 09:39:27;;;;;;;13.85;10.35;;;4.70;99.90;;;;;;5090253;28;20049;-74
2023/11/27 09:41:54;;;;;;;14.63;11.27;;;4.70;99.90;;;;;;5084690;28;20480;-76
2023/11/27 09:44:20;;;;;;;13.13;10.48;;;4.70;99.90;;;;;;5106444;28;20316;-77
2023/11/27 09:46:47;;;;;;;13.45;10.15;;;4.80;99.90;;;;;;5089479;28;20057;-74
2023/11/27 09:49:17;;;;;;;13.95;11.15;;;4.80;99.90;;;;;;5085381;28;20057;-74
2023/11/27 09:51:47;;;;;;;12.93;9.85;;;4.80;99.90;;;;;;5082407;28;20031;-75
2023/11/27 09:54:19;;;;;;;14.98;11.82;;;4.80;99.90;;;;;;5116681;27;20511;-75
2023/11/27 09:56:46;;;;;;;12.07;10.77;;;4.80;99.90;;;;;;5101697;27;20031;-75
2023/11/27 09:59:13;;;;;;;13.57;9.40;;;4.80;99.90;;;;;;5081811;27;20461;-76
2023/11/27 10:01:42;;;;;;;11.25;8.82;;;4.90;99.90;;;;;;5080601;27;20039;-74
2023/11/27 10:04:08;;;;;;;11.27;9.63;;;4.90;99.90;;;;;;5102538;27;20032;-75
2023/11/27 10:06:42;;;;;;;12.27;10.20;;;4.90;99.90;;;;;;5101535;27;20039;-77
2023/11/27 10:09:13;;;;;;;14.80;11.07;;;4.90;99.90;;;;;;5098490;27;20432;-75
2023/11/27 10:11:41;;;;;;;14.27;11.52;;;4.90;99.90;;;;;;5079288;28;20051;-74
2023/11/27 10:14:11;;;;;;;12.50;10.52;;;4.90;99.90;;;;;;5081037;27;20078;-76
2023/11/27 10:16:40;;;;;;;13.45;10.65;;;4.90;99.90;;;;;;5099499;27;20028;-76
2023/11/27 10:19:12;;;;;;;12.07;9.63;;;5.00;99.90;;;;;;5099227;27;20114;-77
2023/11/27 10:21:41;;;;;;;14.18;11.45;;;5.00;99.90;;;;;;5114789;27;20298;-73
2023/11/27 10:24:10;;;;;;;14.18;11.05;;;5.00;99.90;;;;;;5083628;27;20035;-76
2023/11/27 10:26:42;;;;;;;11.25;9.98;;;5.00;99.90;;;;;;5082423;27;20032;-75
2023/11/27 10:29:23;;;;;;;11.63;9.88;;;5.00;99.90;;;;;;5082864;27;20402;-76
2023/11/27 10:31:53;;;;;;;13.40;11.00;;;5.00;99.90;;;;;;5086452;28;20036;-75
2023/11/27 10:34:22;;;;;;;12.52;10.45;;;5.10;99.90;;;;;;5086980;27;20051;-75
2023/11/27 10:36:56;;;;;;;14.55;11.38;;;5.10;99.90;;;;;;5103758;27;20564;-77
2023/11/27 10:39:25;;;;;;;11.57;10.18;;;5.10;99.90;;;;;;5087885;27;20039;-76
2023/11/27 10:41:55;;;;;;;13.77;11.00;;;5.10;99.90;;;;;;5068510;28;20043;-75
2023/11/27 10:44:22;;;;;;;14.82;12.63;;;5.20;99.90;;;;;;5071101;27;20028;-77
2023/11/27 10:46:50;;;;;;;15.27;12.05;;;5.10;99.90;;;;;;5105966;27;20030;-75
2023/11/27 10:49:17;;;;;;;16.20;11.75;;;5.20;99.90;;;;;;5114521;27;20478;-76
2023/11/27 10:51:47;;;;;;;15.25;12.73;;;5.20;99.90;;;;;;5083329;27;20050;-75
2023/11/27 10:54:14;;;;;;;16.95;13.23;;;5.20;99.90;;;;;;5083626;28;20510;-75
2023/11/27 10:56:44;;;;;;;19.88;15.10;;;5.20;99.90;;;;;;5097723;27;20035;-73
2023/11/27 10:59:13;;;;;;;15.45;13.20;;;5.20;99.90;;;;;;5083521;28;20129;-75
2023/11/27 11:01:46;;;;;;;15.35;11.90;;;5.20;99.90;;;;;;5093918;27;20035;-73
2023/11/27 11:04:22;;;;;;;14.60;10.82;;;5.20;99.90;;;;;;5084493;27;20028;-73
2023/11/27 11:06:52;;;;;;;12.05;10.75;;;5.20;99.90;;;;;;5071581;27;20035;-75
2023/11/27 11:09:24;;;;;;;15.98;12.20;;;5.30;99.90;;;;;;5070944;28;20042;-78
2023/11/27 11:11:55;;;;;;;12.70;9.98;;;5.30;99.90;;;;;;5080401;27;20036;-76
2023/11/27 11:14:26;;;;;;;12.73;8.93;;;5.30;99.90;;;;;;5084052;27;20032;-77
2023/11/27 11:17:07;;;;;;;12.98;10.35;;;5.30;99.90;;;;;;5082533;27;20035;-73
2023/11/27 11:19:48;;;;;;;12.18;9.82;;;5.30;99.90;;;;;;5103938;27;20492;-76
2023/11/27 11:22:45;;;;;;;12.02;10.07;;;5.40;99.90;;;;;;5067844;27;20024;-76
2023/11/27 11:25:45;;;;;;;13.40;10.48;;;5.40;99.90;;;;;;5082784;28;20032;-75
2023/11/27 11:28:15;;;;;;;13.63;10.20;;;5.40;99.90;;;;;;5082196;27;20052;-77
2023/11/27 11:30:41;;;;;;;16.60;12.38;;;5.40;99.90;;;;;;5082324;28;20039;-74
2023/11/27 11:33:17;;;;;;;14.40;11.73;;;5.40;99.90;;;;;;5069438;27;20031;-76
2023/11/27 11:35:50;;;;;;;14.63;12.05;;;5.40;99.90;;;;;;5088874;27;20481;-76
2023/11/27 11:38:21;;;;;;;11.43;9.60;;;5.40;99.90;;;;;;5083909;27;20027;-73
2023/11/27 11:40:48;;;;;;;13.65;10.82;;;5.40;99.90;;;;;;5103583;27;20413;-77
2023/11/27 11:43:17;;;;;;;12.32;10.30;;;5.40;99.90;;;;;;5102503;27;20042;-77
2023/11/27 11:45:45;;;;;;;18.42;14.27;;;5.50;99.90;;;;;;5093296;27;20027;-77
2023/11/27 11:48:15;;;;;;;12.80;10.85;;;5.50;99.90;;;;;;5082523;28;20425;-76
2023/11/27 11:50:41;;;;;;;15.23;12.73;;;5.50;99.90;;;;;;5061697;27;20039;-76
2023/11/27 11:53:13;;;;;;;15.68;11.32;;;5.50;99.90;;;;;;5098353;27;20026;-76
2023/11/27 11:55:41;;;;;;;13.68;11.80;;;5.50;99.90;;;;;;5086428;28;20078;-73
2023/11/27 11:58:11;;;;;;;14.93;12.85;;;5.50;99.90;;;;;;5094723;27;20023;-75
2023/11/27 12:00:43;;;;;;;15.23;12.23;;;5.50;99.90;;;;;;5095445;27;20034;-75
2023/11/27 12:03:17;;;;;;;32.08;20.83;;;5.50;99.90;;;;;;5115961;27;20023;-74
2023/11/27 12:05:54;;;;;;;21.23;15.70;;;5.50;99.90;;;;;;5080776;27;20027;-75
2023/11/27 12:08:26;;;;;;;18.10;12.30;;;5.50;99.90;;;;;;5065916;27;20043;-74
2023/11/27 12:10:54;;;;;;;16.35;12.35;;;5.50;99.90;;;;;;5081826;27;20673;-75
2023/11/27 12:13:33;;;;;;;17.65;12.65;;;5.60;99.90;;;;;;5063029;28;20062;-73
2023/11/27 12:16:11;;;;;;;15.00;12.27;;;5.60;99.90;;;;;;5085596;27;20047;-79
2023/11/27 12:18:49;;;;;;;13.77;11.52;;;5.50;99.90;;;;;;5081208;27;20057;-75
2023/11/27 12:21:22;;;;;;;14.98;11.90;;;5.60;99.90;;;;;;5068290;28;20028;-77
2023/11/27 12:23:49;;;;;;;16.63;12.88;;;5.60;99.90;;;;;;5084763;27;20042;-78
2023/11/27 12:26:37;;;;;;;18.70;14.20;;;5.60;99.90;;;;;;5104167;27;20490;-77
2023/11/27 12:29:03;;;;;;;15.55;12.90;;;5.60;99.90;;;;;;5080435;27;20050;-76
2023/11/27 12:31:29;;;;;;;17.02;11.75;;;5.60;99.90;;;;;;5085326;27;20028;-78
2023/11/27 12:33:56;;;;;;;13.88;11.52;;;5.60;99.90;;;;;;5103983;27;20382;-80
2023/11/27 12:36:25;;;;;;;13.25;11.30;;;5.60;99.90;;;;;;5083921;28;20031;-76
2023/11/27 12:38:54;;;;;;;14.35;11.65;;;5.60;99.90;;;;;;5067428;27;20126;-78
2023/11/27 12:41:30;;;;;;;14.10;11.23;;;5.60;99.90;;;;;;5099484;27;20263;-78